sensor_id;sensor_type;location;lat;lon;timestamp;pressure;altitude;pressure_sealevel;temperature;humidity
27202;BME280;14717;46.924;15.474;2023-04-19T00:00:33;98014.19;;;10.62;100.00
27202;BME280;14717;46.924;15.474;2023-04-19T00:03:00;98015.06;;;10.57;100.00
27202;BME280;14717;46.924;15.474;2023-04-19T00:05:26;97999.81;;;10.60;100.00
27202;BME280;14717;46.924;15.474;2023-04-19T00:07:52;98008.91;;;10.65;100.00
27202;BME280;14717;46.924;15.474;2023-04-19T00:10:17;98009.63;;;10.75;100.00
27202;BME280;14717;46.924;15.474;2023-04-19T00:12:42;98003.59;;;10.73;100.00
27202;BME280;14717;46.924;15.474;2023-04-19T00:15:08;98005.25;;;10.69;100.00
27202;BME280;14717;46.924;15.474;2023-04-19T00:17:34;98000.88;;;10.68;100.00
27202;BME280;14717;46.924;15.474;2023-04-19T00:19:59;97997.53;;;10.71;100.00
27202;BME280;14717;46.924;15.474;2023-04-19T00:22:25;97997.75;;;10.75;100.00
27202;BME280;14717;46.924;15.474;2023-04-19T00:24:51;97992.75;;;10.77;100.00
27202;BME280;14717;46.924;15.474;2023-04-19T00:27:16;97996.59;;;10.81;100.00
27202;BME280;14717;46.924;15.474;2023-04-19T00:29:42;97985.53;;;10.81;100.00
27202;BME280;14717;46.924;15.474;2023-04-19T00:32:07;97988.00;;;10.82;100.00
27202;BME280;14717;46.924;15.474;2023-04-19T00:34:33;97980.25;;;10.84;100.00
27202;BME280;14717;46.924;15.474;2023-04-19T00:36:59;97978.91;;;10.82;100.00
27202;BME280;14717;46.924;15.474;2023-04-19T00:39:25;97971.19;;;10.79;100.00
27202;BME280;14717;46.924;15.474;2023-04-19T00:41:50;97957.19;;;10.70;100.00
27202;BME280;14717;46.924;15.474;2023-04-19T00:44:17;97966.00;;;10.72;100.00
27202;BME280;14717;46.924;15.474;2023-04-19T00:46:42;97954.94;;;10.72;100.00
27202;BME280;14717;46.924;15.474;2023-04-19T00:49:08;97956.59;;;10.73;100.00
27202;BME280;14717;46.924;15.474;2023-04-19T00:51:34;97961.28;;;10.73;100.00
27202;BME280;14717;46.924;15.474;2023-04-19T00:54:01;97957.94;;;10.76;100.00
27202;BME280;14717;46.924;15.474;2023-04-19T00:56:26;97954.53;;;10.61;100.00
27202;BME280;14717;46.924;15.474;2023-04-19T00:58:53;97959.00;;;10.57;100.00
27202;BME280;14717;46.924;15.474;2023-04-19T01:01:18;97967.53;;;10.60;100.00
27202;BME280;14717;46.924;15.474;2023-04-19T01:03:45;97967.53;;;10.60;100.00
27202;BME280;14717;46.924;15.474;2023-04-19T01:06:11;97959.53;;;10.59;100.00
27202;BME280;14717;46.924;15.474;2023-04-19T01:08:37;97959.22;;;10.60;100.00
27202;BME280;14717;46.924;15.474;2023-04-19T01:11:03;97961.75;;;10.57;100.00
27202;BME280;14717;46.924;15.474;2023-04-19T01:13:29;97957.13;;;10.47;100.00
27202;BME280;14717;46.924;15.474;2023-04-19T01:15:56;97961.28;;;10.45;100.00
27202;BME280;14717;46.924;15.474;2023-04-19T01:18:21;97951.28;;;10.54;100.00
27202;BME280;14717;46.924;15.474;2023-04-19T01:20:48;97945.75;;;10.54;100.00
27202;BME280;14717;46.924;15.474;2023-04-19T01:23:14;97954.56;;;10.56;100.00
27202;BME280;14717;46.924;15.474;2023-04-19T01:25:39;97943.56;;;10.51;100.00
27202;BME280;14717;46.924;15.474;2023-04-19T01:28:04;97947.34;;;10.60;100.00
27202;BME280;14717;46.924;15.474;2023-04-19T01:30:30;97953.28;;;10.43;100.00
27202;BME280;14717;46.924;15.474;2023-04-19T01:32:56;97958.63;;;10.35;100.00
27202;BME280;14717;46.924;15.474;2023-04-19T01:35:21;97953.03;;;10.40;100.00
27202;BME280;14717;46.924;15.474;2023-04-19T01:37:47;97949.94;;;10.46;100.00
27202;BME280;14717;46.924;15.474;2023-04-19T01:40:12;97954.09;;;10.49;100.00
27202;BME280;14717;46.924;15.474;2023-04-19T01:42:38;97932.81;;;10.49;100.00
27202;BME280;14717;46.924;15.474;2023-04-19T01:45:04;97936.09;;;10.51;100.00
27202;BME280;14717;46.924;15.474;2023-04-19T01:47:29;97940.00;;;10.50;100.00
27202;BME280;14717;46.924;15.474;2023-04-19T01:49:54;97940.66;;;10.37;100.00
27202;BME280;14717;46.924;15.474;2023-04-19T01:52:20;97937.13;;;10.32;100.00
27202;BME280;14717;46.924;15.474;2023-04-19T01:54:45;97938.84;;;10.23;100.00
27202;BME280;14717;46.924;15.474;2023-04-19T01:57:11;97936.13;;;10.18;100.00
27202;BME280;14717;46.924;15.474;2023-04-19T01:59:36;97934.44;;;10.22;100.00
27202;BME280;14717;46.924;15.474;2023-04-19T02:02:01;97935.06;;;10.14;100.00
27202;BME280;14717;46.924;15.474;2023-04-19T02:04:27;97922.41;;;10.08;100.00
27202;BME280;14717;46.924;15.474;2023-04-19T02:06:52;97929.63;;;10.04;100.00
27202;BME280;14717;46.924;15.474;2023-04-19T02:09:17;97920.72;;;10.12;100.00
27202;BME280;14717;46.924;15.474;2023-04-19T02:11:43;97928.25;;;10.02;100.00
27202;BME280;14717;46.924;15.474;2023-04-19T02:14:08;97926.34;;;9.97;100.00
27202;BME280;14717;46.924;15.474;2023-04-19T02:16:34;97923.56;;;9.97;100.00
27202;BME280;14717;46.924;15.474;2023-04-19T02:18:59;97916.63;;;10.05;100.00
27202;BME280;14717;46.924;15.474;2023-04-19T02:21:24;97913.88;;;10.05;100.00
27202;BME280;14717;46.924;15.474;2023-04-19T02:23:50;97909.81;;;9.92;100.00
27202;BME280;14717;46.924;15.474;2023-04-19T02:26:15;97907.94;;;9.83;100.00
27202;BME280;14717;46.924;15.474;2023-04-19T02:28:40;97911.00;;;9.81;100.00
27202;BME280;14717;46.924;15.474;2023-04-19T02:31:06;97902.41;;;9.88;100.00
27202;BME280;14717;46.924;15.474;2023-04-19T02:33:32;97891.34;;;9.88;100.00
27202;BME280;14717;46.924;15.474;2023-04-19T02:35:57;97899.81;;;9.63;100.00
27202;BME280;14717;46.924;15.474;2023-04-19T02:38:23;97902.03;;;9.61;100.00
27202;BME280;14717;46.924;15.474;2023-04-19T02:40:48;97895.47;;;9.52;100.00
27202;BME280;14717;46.924;15.474;2023-04-19T02:43:13;97892.44;;;9.54;100.00
27202;BME280;14717;46.924;15.474;2023-04-19T02:45:39;97886.97;;;9.44;100.00
27202;BME280;14717;46.924;15.474;2023-04-19T02:48:05;97888.09;;;9.38;100.00
27202;BME280;14717;46.924;15.474;2023-04-19T02:50:31;97884.81;;;9.36;100.00
27202;BME280;14717;46.924;15.474;2023-04-19T02:52:57;97878.00;;;9.24;100.00
27202;BME280;14717;46.924;15.474;2023-04-19T02:55:22;97876.66;;;9.16;100.00
27202;BME280;14717;46.924;15.474;2023-04-19T02:57:47;97880.03;;;9.03;100.00
27202;BME280;14717;46.924;15.474;2023-04-19T03:00:13;97875.34;;;9.04;100.00
27202;BME280;14717;46.924;15.474;2023-04-19T03:02:40;97876.66;;;9.16;100.00
27202;BME280;14717;46.924;15.474;2023-04-19T03:05:08;97875.59;;;9.12;100.00
27202;BME280;14717;46.924;15.474;2023-04-19T03:07:33;97880.53;;;9.15;100.00
27202;BME280;14717;46.924;15.474;2023-04-19T03:09:59;97871.78;;;8.98;100.00
27202;BME280;14717;46.924;15.474;2023-04-19T03:12:24;97863.78;;;8.97;100.00
27202;BME280;14717;46.924;15.474;2023-04-19T03:14:49;97857.72;;;9.00;100.00
27202;BME280;14717;46.924;15.474;2023-04-19T03:17:15;97854.66;;;9.06;100.00
27202;BME280;14717;46.924;15.474;2023-04-19T03:19:40;97857.19;;;8.98;100.00
27202;BME280;14717;46.924;15.474;2023-04-19T03:22:05;97845.66;;;8.91;100.00
27202;BME280;14717;46.924;15.474;2023-04-19T03:24:31;97843.69;;;8.96;100.00
27202;BME280;14717;46.924;15.474;2023-04-19T03:26:57;97845.69;;;8.81;100.00
27202;BME280;14717;46.924;15.474;2023-04-19T03:29:22;97844.63;;;8.72;100.00
27202;BME280;14717;46.924;15.474;2023-04-19T03:31:48;97836.94;;;8.74;100.00
27202;BME280;14717;46.924;15.474;2023-04-19T03:34:14;97842.72;;;8.68;100.00
27202;BME280;14717;46.924;15.474;2023-04-19T03:36:40;97840.03;;;8.53;100.00
27202;BME280;14717;46.924;15.474;2023-04-19T03:39:05;97839.16;;;8.57;100.00
27202;BME280;14717;46.924;15.474;2023-04-19T03:41:31;97838.84;;;8.69;100.00
27202;BME280;14717;46.924;15.474;2023-04-19T03:43:56;97844.06;;;8.75;100.00
27202;BME280;14717;46.924;15.474;2023-04-19T03:46:22;97841.59;;;8.69;100.00
27202;BME280;14717;46.924;15.474;2023-04-19T03:48:48;97840.84;;;8.53;100.00
27202;BME280;14717;46.924;15.474;2023-04-19T03:51:14;97837.31;;;8.43;100.00
27202;BME280;14717;46.924;15.474;2023-04-19T03:53:40;97835.13;;;8.40;100.00
27202;BME280;14717;46.924;15.474;2023-04-19T03:56:05;97841.13;;;8.47;100.00
27202;BME280;14717;46.924;15.474;2023-04-19T03:58:31;97841.69;;;8.49;100.00
27202;BME280;14717;46.924;15.474;2023-04-19T04:00:58;97838.38;;;8.47;100.00
27202;BME280;14717;46.924;15.474;2023-04-19T04:03:23;97847.72;;;8.56;100.00
27202;BME280;14717;46.924;15.474;2023-04-19T04:05:49;97843.88;;;8.57;100.00
27202;BME280;14717;46.924;15.474;2023-04-19T04:08:14;97838.94;;;8.44;100.00
27202;BME280;14717;46.924;15.474;2023-04-19T04:10:39;97837.56;;;8.51;100.00
27202;BME280;14717;46.924;15.474;2023-04-19T04:13:05;97846.34;;;8.53;100.00
27202;BME280;14717;46.924;15.474;2023-04-19T04:15:30;97841.66;;;8.59;100.00
27202;BME280;14717;46.924;15.474;2023-04-19T04:17:55;97839.16;;;8.57;100.00
27202;BME280;14717;46.924;15.474;2023-04-19T04:20:21;97845.78;;;8.61;100.00
27202;BME280;14717;46.924;15.474;2023-04-19T04:22:46;97845.53;;;8.58;100.00
27202;BME280;14717;46.924;15.474;2023-04-19T04:25:15;97841.06;;;8.67;100.00
27202;BME280;14717;46.924;15.474;2023-04-19T04:27:41;97850.44;;;8.61;100.00
27202;BME280;14717;46.924;15.474;2023-04-19T04:30:08;97844.38;;;8.64;100.00
27202;BME280;14717;46.924;15.474;2023-04-19T04:32:34;97838.31;;;8.72;100.00
27202;BME280;14717;46.924;15.474;2023-04-19T04:35:03;97840.50;;;8.75;100.00
27202;BME280;14717;46.924;15.474;2023-04-19T04:37:35;97841.88;;;8.67;100.00
27202;BME280;14717;46.924;15.474;2023-04-19T04:40:04;97847.97;;;8.69;100.00
27202;BME280;14717;46.924;15.474;2023-04-19T04:42:30;97844.09;;;8.70;100.00
27202;BME280;14717;46.924;15.474;2023-04-19T04:44:56;97848.22;;;8.73;100.00
27202;BME280;14717;46.924;15.474;2023-04-19T04:47:22;97848.25;;;8.63;100.00
27202;BME280;14717;46.924;15.474;2023-04-19T04:49:48;97843.22;;;8.80;100.00
27202;BME280;14717;46.924;15.474;2023-04-19T04:52:13;97847.88;;;8.89;100.00
27202;BME280;14717;46.924;15.474;2023-04-19T04:54:39;97845.88;;;8.99;100.00
27202;BME280;14717;46.924;15.474;2023-04-19T04:57:05;97845.31;;;9.07;100.00
27202;BME280;14717;46.924;15.474;2023-04-19T04:59:30;97844.78;;;9.00;100.00
27202;BME280;14717;46.924;15.474;2023-04-19T05:01:56;97848.09;;;9.02;100.00
27202;BME280;14717;46.924;15.474;2023-04-19T05:04:21;97847.16;;;9.17;100.00
27202;BME280;14717;46.924;15.474;2023-04-19T05:06:46;97849.03;;;9.26;100.00
27202;BME280;14717;46.924;15.474;2023-04-19T05:09:12;97842.97;;;9.29;100.00
27202;BME280;14717;46.924;15.474;2023-04-19T05:11:37;97842.44;;;9.27;100.00
27202;BME280;14717;46.924;15.474;2023-04-19T05:14:03;97851.16;;;9.39;100.00
27202;BME280;14717;46.924;15.474;2023-04-19T05:16:28;97851.88;;;9.54;100.00
27202;BME280;14717;46.924;15.474;2023-04-19T05:18:53;97841.88;;;9.68;100.00
27202;BME280;14717;46.924;15.474;2023-04-19T05:21:20;97843.09;;;9.85;100.00
27202;BME280;14717;46.924;15.474;2023-04-19T05:23:45;97839.97;;;9.97;100.00
27202;BME280;14717;46.924;15.474;2023-04-19T05:26:10;97835.69;;;10.14;100.00
27202;BME280;14717;46.924;15.474;2023-04-19T05:28:39;97848.81;;;10.27;100.00
27202;BME280;14717;46.924;15.474;2023-04-19T05:31:04;97843.28;;;10.27;100.00
27202;BME280;14717;46.924;15.474;2023-04-19T05:33:30;97839.81;;;10.40;100.00
27202;BME280;14717;46.924;15.474;2023-04-19T05:35:55;97836.09;;;10.54;98.31
27202;BME280;14717;46.924;15.474;2023-04-19T05:38:20;97844.38;;;10.77;97.13
27202;BME280;14717;46.924;15.474;2023-04-19T05:40:46;97841.03;;;10.80;95.26
27202;BME280;14717;46.924;15.474;2023-04-19T05:43:11;97837.63;;;10.88;95.96
27202;BME280;14717;46.924;15.474;2023-04-19T05:45:36;97839.19;;;10.94;95.41
27202;BME280;14717;46.924;15.474;2023-04-19T05:48:02;97841.59;;;11.01;94.25
27202;BME280;14717;46.924;15.474;2023-04-19T05:50:27;97845.88;;;11.11;94.84
27202;BME280;14717;46.924;15.474;2023-04-19T05:52:53;97837.59;;;11.11;93.53
27202;BME280;14717;46.924;15.474;2023-04-19T05:55:18;97837.88;;;11.10;92.59
27202;BME280;14717;46.924;15.474;2023-04-19T05:57:43;97838.59;;;10.97;93.58
27202;BME280;14717;46.924;15.474;2023-04-19T06:00:09;97843.53;;;11.00;93.89
27202;BME280;14717;46.924;15.474;2023-04-19T06:02:35;97838.84;;;11.19;92.70
27202;BME280;14717;46.924;15.474;2023-04-19T06:05:01;97840.59;;;11.33;90.96
27202;BME280;14717;46.924;15.474;2023-04-19T06:07:28;97836.66;;;11.57;93.00
27202;BME280;14717;46.924;15.474;2023-04-19T06:09:55;97837.09;;;11.64;91.96
27202;BME280;14717;46.924;15.474;2023-04-19T06:12:20;97832.53;;;11.55;90.12
27202;BME280;14717;46.924;15.474;2023-04-19T06:14:46;97833.44;;;11.69;91.08
27202;BME280;14717;46.924;15.474;2023-04-19T06:17:11;97833.97;;;12.02;91.44
27202;BME280;14717;46.924;15.474;2023-04-19T06:19:36;97830.94;;;12.17;90.14
27202;BME280;14717;46.924;15.474;2023-04-19T06:22:02;97827.16;;;12.13;89.27
27202;BME280;14717;46.924;15.474;2023-04-19T06:24:27;97830.91;;;12.04;89.61
27202;BME280;14717;46.924;15.474;2023-04-19T06:26:52;97834.16;;;11.92;92.10
27202;BME280;14717;46.924;15.474;2023-04-19T06:29:18;97828.31;;;11.94;91.59
27202;BME280;14717;46.924;15.474;2023-04-19T06:31:46;97818.03;;;12.13;91.61
27202;BME280;14717;46.924;15.474;2023-04-19T06:34:11;97822.75;;;12.26;91.92
27202;BME280;14717;46.924;15.474;2023-04-19T06:36:36;97814.81;;;12.37;91.27
27202;BME280;14717;46.924;15.474;2023-04-19T06:39:02;97816.56;;;12.60;90.25
27202;BME280;14717;46.924;15.474;2023-04-19T06:41:28;97812.38;;;12.76;89.85
27202;BME280;14717;46.924;15.474;2023-04-19T06:43:53;97808.47;;;12.77;89.85
27202;BME280;14717;46.924;15.474;2023-04-19T06:46:18;97815.06;;;12.94;88.71
27202;BME280;14717;46.924;15.474;2023-04-19T06:48:44;97807.16;;;13.15;83.01
27202;BME280;14717;46.924;15.474;2023-04-19T06:51:09;97808.09;;;12.97;83.02
27202;BME280;14717;46.924;15.474;2023-04-19T06:53:35;97812.97;;;13.26;83.84
27202;BME280;14717;46.924;15.474;2023-04-19T06:56:02;97806.81;;;13.29;82.04
27202;BME280;14717;46.924;15.474;2023-04-19T06:58:28;97809.25;;;13.44;80.90
27202;BME280;14717;46.924;15.474;2023-04-19T07:00:54;97792.13;;;13.64;79.35
27202;BME280;14717;46.924;15.474;2023-04-19T07:03:20;97801.34;;;13.73;79.71
27202;BME280;14717;46.924;15.474;2023-04-19T07:05:46;97793.50;;;13.75;78.77
27202;BME280;14717;46.924;15.474;2023-04-19T07:08:11;97802.31;;;13.77;78.32
27202;BME280;14717;46.924;15.474;2023-04-19T07:10:36;97795.09;;;13.89;76.67
27202;BME280;14717;46.924;15.474;2023-04-19T07:13:02;97794.75;;;14.04;77.80
27202;BME280;14717;46.924;15.474;2023-04-19T07:15:27;97797.13;;;14.19;78.19
27202;BME280;14717;46.924;15.474;2023-04-19T07:17:52;97799.47;;;14.25;78.49
27202;BME280;14717;46.924;15.474;2023-04-19T07:20:19;97797.81;;;14.24;79.93
27202;BME280;14717;46.924;15.474;2023-04-19T07:22:46;97788.44;;;14.42;78.08
27202;BME280;14717;46.924;15.474;2023-04-19T07:25:11;97791.22;;;14.42;78.45
27202;BME280;14717;46.924;15.474;2023-04-19T07:27:36;97782.69;;;14.39;77.74
27202;BME280;14717;46.924;15.474;2023-04-19T07:30:02;97779.09;;;14.38;77.14
27202;BME280;14717;46.924;15.474;2023-04-19T07:32:27;97785.03;;;14.45;77.55
27202;BME280;14717;46.924;15.474;2023-04-19T07:34:53;97773.41;;;14.43;75.69
27202;BME280;14717;46.924;15.474;2023-04-19T07:37:18;97779.28;;;14.42;76.82
27202;BME280;14717;46.924;15.474;2023-04-19T07:39:44;97773.38;;;14.73;75.86
27202;BME280;14717;46.924;15.474;2023-04-19T07:42:09;97769.22;;;15.01;71.85
27202;BME280;14717;46.924;15.474;2023-04-19T07:44:35;97774.41;;;14.86;72.53
27202;BME280;14717;46.924;15.474;2023-04-19T07:47:00;97775.69;;;15.18;71.24
27202;BME280;14717;46.924;15.474;2023-04-19T07:49:27;97759.75;;;15.10;70.88
27202;BME280;14717;46.924;15.474;2023-04-19T07:51:57;97767.88;;;14.98;69.88
27202;BME280;14717;46.924;15.474;2023-04-19T07:54:23;97756.06;;;14.85;68.70
27202;BME280;14717;46.924;15.474;2023-04-19T07:56:48;97754.91;;;15.24;68.64
27202;BME280;14717;46.924;15.474;2023-04-19T07:59:14;97755.44;;;15.60;67.12
27202;BME280;14717;46.924;15.474;2023-04-19T08:01:39;97744.25;;;16.02;66.26
27202;BME280;14717;46.924;15.474;2023-04-19T08:04:05;97750.47;;;16.16;64.48
27202;BME280;14717;46.924;15.474;2023-04-19T08:06:30;97748.38;;;15.54;63.41
27202;BME280;14717;46.924;15.474;2023-04-19T08:08:56;97747.38;;;15.75;66.04
27202;BME280;14717;46.924;15.474;2023-04-19T08:11:21;97742.16;;;15.65;64.48
27202;BME280;14717;46.924;15.474;2023-04-19T08:13:49;97740.50;;;15.89;67.88
27202;BME280;14717;46.924;15.474;2023-04-19T08:16:14;97740.97;;;15.91;65.95
27202;BME280;14717;46.924;15.474;2023-04-19T08:18:40;97737.88;;;15.42;63.84
27202;BME280;14717;46.924;15.474;2023-04-19T08:21:05;97735.25;;;15.88;64.79
27202;BME280;14717;46.924;15.474;2023-04-19T08:23:31;97726.22;;;16.08;63.98
27202;BME280;14717;46.924;15.474;2023-04-19T08:25:56;97723.72;;;16.31;60.69
27202;BME280;14717;46.924;15.474;2023-04-19T08:28:21;97721.28;;;16.13;59.52
27202;BME280;14717;46.924;15.474;2023-04-19T08:30:47;97722.44;;;16.20;59.67
27202;BME280;14717;46.924;15.474;2023-04-19T08:33:12;97726.00;;;16.29;61.34
27202;BME280;14717;46.924;15.474;2023-04-19T08:35:38;97717.63;;;16.38;58.37
27202;BME280;14717;46.924;15.474;2023-04-19T08:38:05;97728.78;;;16.38;59.41
27202;BME280;14717;46.924;15.474;2023-04-19T08:40:31;97721.94;;;16.10;59.88
27202;BME280;14717;46.924;15.474;2023-04-19T08:42:56;97710.97;;;16.22;56.41
27202;BME280;14717;46.924;15.474;2023-04-19T08:45:26;97718.28;;;16.35;55.27
27202;BME280;14717;46.924;15.474;2023-04-19T08:47:53;97710.78;;;16.27;56.78
27202;BME280;14717;46.924;15.474;2023-04-19T08:50:19;97714.59;;;16.60;57.79
27202;BME280;14717;46.924;15.474;2023-04-19T08:52:45;97708.03;;;16.93;55.63
27202;BME280;14717;46.924;15.474;2023-04-19T08:55:11;97710.38;;;17.11;55.33
27202;BME280;14717;46.924;15.474;2023-04-19T08:57:37;97705.66;;;16.74;50.91
27202;BME280;14717;46.924;15.474;2023-04-19T09:00:02;97699.34;;;17.14;51.86
27202;BME280;14717;46.924;15.474;2023-04-19T09:02:47;97698.31;;;17.48;53.48
27202;BME280;14717;46.924;15.474;2023-04-19T09:05:13;97688.75;;;17.28;52.51
27202;BME280;14717;46.924;15.474;2023-04-19T09:07:39;97692.09;;;16.93;52.83
27202;BME280;14717;46.924;15.474;2023-04-19T09:10:05;97687.75;;;17.33;51.76
27202;BME280;14717;46.924;15.474;2023-04-19T09:12:32;97680.44;;;17.60;51.63
27202;BME280;14717;46.924;15.474;2023-04-19T09:14:59;97687.81;;;17.45;49.80
27202;BME280;14717;46.924;15.474;2023-04-19T09:17:25;97680.72;;;17.27;51.38
27202;BME280;14717;46.924;15.474;2023-04-19T09:19:50;97672.41;;;17.59;49.74
27202;BME280;14717;46.924;15.474;2023-04-19T09:22:16;97670.41;;;18.12;49.35
27202;BME280;14717;46.924;15.474;2023-04-19T09:24:42;97669.50;;;18.20;48.48
27202;BME280;14717;46.924;15.474;2023-04-19T09:27:07;97668.72;;;17.99;47.84
27202;BME280;14717;46.924;15.474;2023-04-19T09:29:36;97668.09;;;18.14;48.96
27202;BME280;14717;46.924;15.474;2023-04-19T09:32:01;97666.94;;;17.62;48.88
27202;BME280;14717;46.924;15.474;2023-04-19T09:34:28;97666.16;;;18.26;49.24
27202;BME280;14717;46.924;15.474;2023-04-19T09:36:55;97655.69;;;18.94;47.70
27202;BME280;14717;46.924;15.474;2023-04-19T09:39:33;97658.72;;;18.77;46.43
27202;BME280;14717;46.924;15.474;2023-04-19T09:42:00;97646.00;;;18.68;45.60
27202;BME280;14717;46.924;15.474;2023-04-19T09:44:26;97653.22;;;18.33;43.65
27202;BME280;14717;46.924;15.474;2023-04-19T09:46:52;97652.72;;;18.20;42.49
27202;BME280;14717;46.924;15.474;2023-04-19T09:49:21;97643.75;;;18.14;45.74
27202;BME280;14717;46.924;15.474;2023-04-19T09:51:55;97635.13;;;17.87;45.20
27202;BME280;14717;46.924;15.474;2023-04-19T09:54:22;97630.72;;;18.30;46.52
27202;BME280;14717;46.924;15.474;2023-04-19T09:56:49;97633.28;;;18.35;44.42
27202;BME280;14717;46.924;15.474;2023-04-19T09:59:15;97626.31;;;17.97;48.76
27202;BME280;14717;46.924;15.474;2023-04-19T10:04:14;97627.75;;;17.10;49.29
27202;BME280;14717;46.924;15.474;2023-04-19T10:06:50;97625.97;;;17.34;49.70
27202;BME280;14717;46.924;15.474;2023-04-19T10:09:22;97627.56;;;17.55;50.59
27202;BME280;14717;46.924;15.474;2023-04-19T10:11:51;97619.91;;;17.64;51.26
27202;BME280;14717;46.924;15.474;2023-04-19T10:14:21;97628.38;;;17.76;48.96
27202;BME280;14717;46.924;15.474;2023-04-19T10:16:49;97626.72;;;17.75;49.24
27202;BME280;14717;46.924;15.474;2023-04-19T10:19:17;97624.94;;;17.71;47.92
27202;BME280;14717;46.924;15.474;2023-04-19T10:21:43;97617.72;;;17.38;48.57
27202;BME280;14717;46.924;15.474;2023-04-19T10:24:12;97614.09;;;17.37;48.50
27202;BME280;14717;46.924;15.474;2023-04-19T10:27:13;97619.06;;;17.32;49.62
27202;BME280;14717;46.924;15.474;2023-04-19T10:32:16;97617.47;;;17.02;49.29
27202;BME280;14717;46.924;15.474;2023-04-19T10:34:41;97607.69;;;17.16;48.67
27202;BME280;14717;46.924;15.474;2023-04-19T10:37:09;97609.19;;;17.34;48.02
27202;BME280;14717;46.924;15.474;2023-04-19T10:39:39;97610.34;;;17.13;46.65
27202;BME280;14717;46.924;15.474;2023-04-19T10:42:05;97603.59;;;17.14;47.86
27202;BME280;14717;46.924;15.474;2023-04-19T10:44:31;97598.84;;;17.35;47.92
27202;BME280;14717;46.924;15.474;2023-04-19T10:46:57;97607.97;;;17.44;49.15
27202;BME280;14717;46.924;15.474;2023-04-19T10:49:23;97602.25;;;17.20;51.76
27202;BME280;14717;46.924;15.474;2023-04-19T10:51:50;97602.84;;;17.05;52.03
27202;BME280;14717;46.924;15.474;2023-04-19T10:57:03;97598.84;;;17.35;53.04
27202;BME280;14717;46.924;15.474;2023-04-19T10:59:36;97602.09;;;17.37;54.52
27202;BME280;14717;46.924;15.474;2023-04-19T11:02:04;97591.75;;;17.37;53.85
27202;BME280;14717;46.924;15.474;2023-04-19T11:06:55;97597.94;;;17.02;52.33
27202;BME280;14717;46.924;15.474;2023-04-19T11:09:26;97595.00;;;16.78;57.17
27202;BME280;14717;46.924;15.474;2023-04-19T11:11:52;97595.41;;;16.40;57.30
27202;BME280;14717;46.924;15.474;2023-04-19T11:14:21;97598.38;;;15.98;60.64
27202;BME280;14717;46.924;15.474;2023-04-19T11:16:48;97603.78;;;15.94;61.17
27202;BME280;14717;46.924;15.474;2023-04-19T11:19:19;97600.81;;;15.37;62.30
27202;BME280;14717;46.924;15.474;2023-04-19T11:21:46;97611.75;;;15.08;64.06
27202;BME280;14717;46.924;15.474;2023-04-19T11:24:11;97607.19;;;15.04;64.43
27202;BME280;14717;46.924;15.474;2023-04-19T11:26:37;97621.09;;;15.12;65.45
27202;BME280;14717;46.924;15.474;2023-04-19T11:29:03;97625.66;;;14.91;68.73
27202;BME280;14717;46.924;15.474;2023-04-19T11:31:33;97613.91;;;14.94;71.13
27202;BME280;14717;46.924;15.474;2023-04-19T11:33:59;97632.81;;;14.59;74.41
27202;BME280;14717;46.924;15.474;2023-04-19T11:36:25;97618.34;;;14.23;77.24
27202;BME280;14717;46.924;15.474;2023-04-19T11:38:51;97628.06;;;13.74;81.39
27202;BME280;14717;46.924;15.474;2023-04-19T11:41:17;97623.88;;;13.33;82.54
27202;BME280;14717;46.924;15.474;2023-04-19T11:43:42;97629.56;;;13.28;84.14
27202;BME280;14717;46.924;15.474;2023-04-19T11:46:10;97624.69;;;13.33;86.02
27202;BME280;14717;46.924;15.474;2023-04-19T11:48:36;97632.13;;;13.03;86.17
27202;BME280;14717;46.924;15.474;2023-04-19T11:51:03;97638.66;;;12.72;88.81
27202;BME280;14717;46.924;15.474;2023-04-19T11:53:30;97651.03;;;12.52;88.51
27202;BME280;14717;46.924;15.474;2023-04-19T11:56:07;97661.00;;;12.27;89.43
27202;BME280;14717;46.924;15.474;2023-04-19T12:01:04;97666.44;;;12.05;91.62
27202;BME280;14717;46.924;15.474;2023-04-19T12:03:34;97672.97;;;11.95;90.64
27202;BME280;14717;46.924;15.474;2023-04-19T12:06:00;97670.31;;;11.90;93.87
27202;BME280;14717;46.924;15.474;2023-04-19T12:08:35;97666.81;;;11.85;97.25
27202;BME280;14717;46.924;15.474;2023-04-19T12:11:02;97667.63;;;11.72;95.74
27202;BME280;14717;46.924;15.474;2023-04-19T12:13:28;97666.91;;;11.67;96.82
27202;BME280;14717;46.924;15.474;2023-04-19T12:15:55;97661.84;;;11.55;96.56
27202;BME280;14717;46.924;15.474;2023-04-19T12:18:21;97665.72;;;11.54;100.00
27202;BME280;14717;46.924;15.474;2023-04-19T12:20:48;97654.28;;;11.61;100.00
27202;BME280;14717;46.924;15.474;2023-04-19T12:23:16;97652.00;;;11.63;100.00
27202;BME280;14717;46.924;15.474;2023-04-19T12:25:44;97643.44;;;11.91;100.00
27202;BME280;14717;46.924;15.474;2023-04-19T12:28:10;97630.22;;;12.15;100.00
27202;BME280;14717;46.924;15.474;2023-04-19T12:30:36;97627.88;;;12.22;99.87
27202;BME280;14717;46.924;15.474;2023-04-19T12:33:02;97625.19;;;12.17;99.04
27202;BME280;14717;46.924;15.474;2023-04-19T12:35:28;97626.75;;;12.23;97.83
27202;BME280;14717;46.924;15.474;2023-04-19T12:37:55;97614.59;;;12.32;97.59
27202;BME280;14717;46.924;15.474;2023-04-19T12:40:22;97624.78;;;12.23;93.41
27202;BME280;14717;46.924;15.474;2023-04-19T12:42:48;97611.25;;;12.22;95.43
27202;BME280;14717;46.924;15.474;2023-04-19T12:45:14;97603.25;;;12.20;94.89
27202;BME280;14717;46.924;15.474;2023-04-19T12:47:40;97601.06;;;12.31;95.85
27202;BME280;14717;46.924;15.474;2023-04-19T12:50:07;97596.78;;;12.25;94.67
27202;BME280;14717;46.924;15.474;2023-04-19T12:52:33;97591.34;;;12.20;94.53
27202;BME280;14717;46.924;15.474;2023-04-19T12:54:58;97586.44;;;12.03;95.34